sensor_id;sensor_type;location;lat;lon;timestamp;P1;durP1;ratioP1;P2;durP2;ratioP2
21731;SDS011;11028;51.156;17.130;2022-07-06T00:02:00;7.50;;;6.68;;
21731;SDS011;11028;51.156;17.130;2022-07-06T00:09:17;18.00;;;7.85;;
21731;SDS011;11028;51.156;17.130;2022-07-06T00:16:35;11.45;;;6.85;;
21731;SDS011;11028;51.156;17.130;2022-07-06T00:23:52;10.07;;;6.93;;
21731;SDS011;11028;51.156;17.130;2022-07-06T00:31:09;10.48;;;7.22;;
21731;SDS011;11028;51.156;17.130;2022-07-06T00:38:27;12.25;;;7.28;;
21731;SDS011;11028;51.156;17.130;2022-07-06T00:45:45;11.15;;;7.88;;
21731;SDS011;11028;51.156;17.130;2022-07-06T00:53:02;13.68;;;8.50;;
21731;SDS011;11028;51.156;17.130;2022-07-06T01:00:22;10.07;;;8.30;;
21731;SDS011;11028;51.156;17.130;2022-07-06T01:07:40;10.93;;;8.57;;
21731;SDS011;11028;51.156;17.130;2022-07-06T01:14:57;12.07;;;8.98;;
21731;SDS011;11028;51.156;17.130;2022-07-06T01:22:16;13.07;;;8.90;;
21731;SDS011;11028;51.156;17.130;2022-07-06T01:29:33;11.48;;;7.97;;
21731;SDS011;11028;51.156;17.130;2022-07-06T01:36:50;11.48;;;8.43;;
21731;SDS011;11028;51.156;17.130;2022-07-06T01:44:09;13.70;;;8.55;;
21731;SDS011;11028;51.156;17.130;2022-07-06T01:51:27;15.52;;;8.57;;
21731;SDS011;11028;51.156;17.130;2022-07-06T01:58:44;10.93;;;8.85;;
21731;SDS011;11028;51.156;17.130;2022-07-06T02:06:03;14.43;;;9.45;;
21731;SDS011;11028;51.156;17.130;2022-07-06T02:13:21;11.20;;;9.07;;
21731;SDS011;11028;51.156;17.130;2022-07-06T02:20:37;10.88;;;8.15;;
21731;SDS011;11028;51.156;17.130;2022-07-06T02:27:56;11.60;;;8.90;;
21731;SDS011;11028;51.156;17.130;2022-07-06T02:35:14;12.48;;;8.48;;
21731;SDS011;11028;51.156;17.130;2022-07-06T02:42:33;10.10;;;8.75;;
21731;SDS011;11028;51.156;17.130;2022-07-06T02:49:53;9.70;;;7.85;;
21731;SDS011;11028;51.156;17.130;2022-07-06T02:57:11;9.75;;;8.77;;
21731;SDS011;11028;51.156;17.130;2022-07-06T03:04:28;9.75;;;8.55;;
21731;SDS011;11028;51.156;17.130;2022-07-06T03:11:47;11.30;;;9.07;;
21731;SDS011;11028;51.156;17.130;2022-07-06T03:19:04;17.75;;;8.38;;
21731;SDS011;11028;51.156;17.130;2022-07-06T03:26:21;12.80;;;9.35;;
21731;SDS011;11028;51.156;17.130;2022-07-06T03:33:40;12.68;;;9.27;;
21731;SDS011;11028;51.156;17.130;2022-07-06T03:41:00;12.23;;;9.20;;
21731;SDS011;11028;51.156;17.130;2022-07-06T03:48:18;16.10;;;9.27;;
21731;SDS011;11028;51.156;17.130;2022-07-06T03:55:37;14.82;;;8.90;;
21731;SDS011;11028;51.156;17.130;2022-07-06T04:02:57;15.40;;;8.57;;
21731;SDS011;11028;51.156;17.130;2022-07-06T04:10:19;17.80;;;9.30;;
21731;SDS011;11028;51.156;17.130;2022-07-06T04:17:38;14.88;;;8.57;;
21731;SDS011;11028;51.156;17.130;2022-07-06T04:25:22;12.10;;;7.53;;
21731;SDS011;11028;51.156;17.130;2022-07-06T04:32:40;13.90;;;8.65;;
21731;SDS011;11028;51.156;17.130;2022-07-06T04:39:58;13.65;;;7.63;;
21731;SDS011;11028;51.156;17.130;2022-07-06T04:47:15;15.60;;;7.70;;
21731;SDS011;11028;51.156;17.130;2022-07-06T04:54:34;15.35;;;8.85;;
21731;SDS011;11028;51.156;17.130;2022-07-06T05:01:51;8.75;;;6.65;;
21731;SDS011;11028;51.156;17.130;2022-07-06T05:09:08;12.13;;;6.68;;
21731;SDS011;11028;51.156;17.130;2022-07-06T05:16:27;8.68;;;5.60;;
21731;SDS011;11028;51.156;17.130;2022-07-06T05:23:44;10.98;;;5.60;;
21731;SDS011;11028;51.156;17.130;2022-07-06T05:31:01;8.15;;;6.22;;
21731;SDS011;11028;51.156;17.130;2022-07-06T05:38:20;10.70;;;5.60;;
21731;SDS011;11028;51.156;17.130;2022-07-06T05:45:36;6.57;;;5.50;;
21731;SDS011;11028;51.156;17.130;2022-07-06T05:52:57;8.38;;;6.38;;
21731;SDS011;11028;51.156;17.130;2022-07-06T06:00:18;11.90;;;6.07;;
21731;SDS011;11028;51.156;17.130;2022-07-06T06:07:41;7.93;;;5.65;;
21731;SDS011;11028;51.156;17.130;2022-07-06T06:14:59;6.28;;;4.80;;
21731;SDS011;11028;51.156;17.130;2022-07-06T06:22:17;12.68;;;5.82;;
21731;SDS011;11028;51.156;17.130;2022-07-06T06:29:34;8.52;;;5.85;;
21731;SDS011;11028;51.156;17.130;2022-07-06T06:36:51;9.50;;;6.72;;
21731;SDS011;11028;51.156;17.130;2022-07-06T06:44:09;10.35;;;6.38;;
21731;SDS011;11028;51.156;17.130;2022-07-06T06:51:38;39.05;;;26.13;;
21731;SDS011;11028;51.156;17.130;2022-07-06T06:58:56;12.23;;;7.53;;
21731;SDS011;11028;51.156;17.130;2022-07-06T07:06:12;7.78;;;6.70;;
21731;SDS011;11028;51.156;17.130;2022-07-06T07:13:30;7.60;;;6.07;;
21731;SDS011;11028;51.156;17.130;2022-07-06T07:20:47;9.15;;;5.82;;
21731;SDS011;11028;51.156;17.130;2022-07-06T07:28:04;7.72;;;4.60;;
21731;SDS011;11028;51.156;17.130;2022-07-06T07:35:22;4.25;;;3.78;;
21731;SDS011;11028;51.156;17.130;2022-07-06T07:42:39;6.88;;;4.07;;
21731;SDS011;11028;51.156;17.130;2022-07-06T07:49:56;3.13;;;2.80;;
21731;SDS011;11028;51.156;17.130;2022-07-06T07:57:14;5.25;;;3.30;;
21731;SDS011;11028;51.156;17.130;2022-07-06T08:04:31;2.95;;;2.65;;
21731;SDS011;11028;51.156;17.130;2022-07-06T08:11:48;2.88;;;2.60;;
21731;SDS011;11028;51.156;17.130;2022-07-06T08:19:06;9.15;;;2.80;;
21731;SDS011;11028;51.156;17.130;2022-07-06T08:26:22;8.02;;;2.75;;
21731;SDS011;11028;51.156;17.130;2022-07-06T08:33:39;3.50;;;2.50;;
21731;SDS011;11028;51.156;17.130;2022-07-06T08:40:57;5.45;;;2.40;;
21731;SDS011;11028;51.156;17.130;2022-07-06T08:48:14;3.70;;;2.17;;
21731;SDS011;11028;51.156;17.130;2022-07-06T08:55:32;3.50;;;2.17;;
21731;SDS011;11028;51.156;17.130;2022-07-06T09:02:50;5.55;;;2.58;;
21731;SDS011;11028;51.156;17.130;2022-07-06T09:17:28;3.40;;;2.58;;
21731;SDS011;11028;51.156;17.130;2022-07-06T09:24:47;7.03;;;2.90;;
21731;SDS011;11028;51.156;17.130;2022-07-06T09:32:05;4.22;;;3.08;;
21731;SDS011;11028;51.156;17.130;2022-07-06T09:39:23;5.47;;;2.88;;
21731;SDS011;11028;51.156;17.130;2022-07-06T09:46:43;5.47;;;3.55;;
21731;SDS011;11028;51.156;17.130;2022-07-06T09:54:03;5.82;;;2.80;;
21731;SDS011;11028;51.156;17.130;2022-07-06T10:01:25;7.88;;;2.80;;
21731;SDS011;11028;51.156;17.130;2022-07-06T10:08:43;3.38;;;2.55;;
21731;SDS011;11028;51.156;17.130;2022-07-06T10:16:01;3.30;;;2.90;;
21731;SDS011;11028;51.156;17.130;2022-07-06T10:23:18;6.60;;;2.67;;
21731;SDS011;11028;51.156;17.130;2022-07-06T10:30:36;4.80;;;2.40;;
21731;SDS011;11028;51.156;17.130;2022-07-06T10:38:03;4.40;;;1.92;;
21731;SDS011;11028;51.156;17.130;2022-07-06T10:53:10;4.05;;;1.95;;
21731;SDS011;11028;51.156;17.130;2022-07-06T11:00:42;2.72;;;2.22;;
21731;SDS011;11028;51.156;17.130;2022-07-06T11:08:09;7.05;;;2.08;;
21731;SDS011;11028;51.156;17.130;2022-07-06T11:15:46;3.58;;;2.35;;
21731;SDS011;11028;51.156;17.130;2022-07-06T11:23:03;5.05;;;2.90;;
21731;SDS011;11028;51.156;17.130;2022-07-06T11:30:21;8.13;;;3.10;;
21731;SDS011;11028;51.156;17.130;2022-07-06T11:37:38;6.45;;;2.15;;
21731;SDS011;11028;51.156;17.130;2022-07-06T11:44:58;6.35;;;2.30;;
21731;SDS011;11028;51.156;17.130;2022-07-06T11:52:16;7.05;;;2.88;;
21731;SDS011;11028;51.156;17.130;2022-07-06T11:59:33;3.65;;;2.17;;
21731;SDS011;11028;51.156;17.130;2022-07-06T12:06:50;3.70;;;1.70;;
21731;SDS011;11028;51.156;17.130;2022-07-06T12:14:15;4.28;;;3.30;;
21731;SDS011;11028;51.156;17.130;2022-07-06T12:21:33;4.53;;;1.52;;
21731;SDS011;11028;51.156;17.130;2022-07-06T12:28:58;5.60;;;1.70;;
21731;SDS011;11028;51.156;17.130;2022-07-06T12:36:17;2.22;;;1.55;;
21731;SDS011;11028;51.156;17.130;2022-07-06T12:43:37;6.85;;;1.58;;
21731;SDS011;11028;51.156;17.130;2022-07-06T12:50:55;2.75;;;1.23;;
21731;SDS011;11028;51.156;17.130;2022-07-06T12:58:18;2.83;;;1.30;;
21731;SDS011;11028;51.156;17.130;2022-07-06T13:12:53;2.60;;;1.35;;
21731;SDS011;11028;51.156;17.130;2022-07-06T13:20:12;5.78;;;1.30;;
21731;SDS011;11028;51.156;17.130;2022-07-06T13:27:29;5.32;;;1.30;;
21731;SDS011;11028;51.156;17.130;2022-07-06T13:34:46;2.10;;;1.25;;
21731;SDS011;11028;51.156;17.130;2022-07-06T13:42:05;3.22;;;1.33;;
21731;SDS011;11028;51.156;17.130;2022-07-06T13:49:22;1.55;;;1.08;;
21731;SDS011;11028;51.156;17.130;2022-07-06T13:56:39;2.90;;;1.13;;
21731;SDS011;11028;51.156;17.130;2022-07-06T14:03:57;6.18;;;1.50;;
21731;SDS011;11028;51.156;17.130;2022-07-06T14:11:14;2.65;;;1.42;;
21731;SDS011;11028;51.156;17.130;2022-07-06T14:18:31;1.33;;;1.23;;
21731;SDS011;11028;51.156;17.130;2022-07-06T14:25:50;1.83;;;1.20;;
21731;SDS011;11028;51.156;17.130;2022-07-06T14:33:07;2.40;;;1.10;;
21731;SDS011;11028;51.156;17.130;2022-07-06T14:40:25;3.80;;;1.30;;
21731;SDS011;11028;51.156;17.130;2022-07-06T14:47:43;3.85;;;1.83;;
21731;SDS011;11028;51.156;17.130;2022-07-06T14:55:00;1.98;;;1.48;;
21731;SDS011;11028;51.156;17.130;2022-07-06T15:02:16;4.55;;;1.80;;
21731;SDS011;11028;51.156;17.130;2022-07-06T15:09:35;4.80;;;3.10;;
21731;SDS011;11028;51.156;17.130;2022-07-06T15:16:51;7.38;;;3.20;;
21731;SDS011;11028;51.156;17.130;2022-07-06T15:24:08;6.65;;;2.97;;
21731;SDS011;11028;51.156;17.130;2022-07-06T15:31:26;2.70;;;1.30;;
21731;SDS011;11028;51.156;17.130;2022-07-06T15:38:43;1.92;;;1.17;;
21731;SDS011;11028;51.156;17.130;2022-07-06T15:46:02;5.78;;;2.03;;
21731;SDS011;11028;51.156;17.130;2022-07-06T15:53:21;6.10;;;1.60;;
21731;SDS011;11028;51.156;17.130;2022-07-06T16:00:38;3.10;;;1.85;;
21731;SDS011;11028;51.156;17.130;2022-07-06T16:07:55;7.82;;;1.90;;
21731;SDS011;11028;51.156;17.130;2022-07-06T16:15:13;2.38;;;1.63;;
21731;SDS011;11028;51.156;17.130;2022-07-06T16:22:30;3.88;;;1.40;;
21731;SDS011;11028;51.156;17.130;2022-07-06T16:29:48;4.10;;;1.52;;
21731;SDS011;11028;51.156;17.130;2022-07-06T16:37:06;3.53;;;1.67;;
21731;SDS011;11028;51.156;17.130;2022-07-06T16:44:23;4.65;;;2.95;;
21731;SDS011;11028;51.156;17.130;2022-07-06T16:51:40;3.15;;;1.20;;
21731;SDS011;11028;51.156;17.130;2022-07-06T16:58:58;8.18;;;4.78;;
21731;SDS011;11028;51.156;17.130;2022-07-06T17:06:14;3.65;;;2.03;;
21731;SDS011;11028;51.156;17.130;2022-07-06T17:13:31;5.97;;;2.03;;
21731;SDS011;11028;51.156;17.130;2022-07-06T17:20:49;7.72;;;1.77;;
21731;SDS011;11028;51.156;17.130;2022-07-06T17:28:06;3.33;;;1.70;;
21731;SDS011;11028;51.156;17.130;2022-07-06T17:35:25;4.47;;;1.73;;
21731;SDS011;11028;51.156;17.130;2022-07-06T17:42:43;2.65;;;1.75;;
21731;SDS011;11028;51.156;17.130;2022-07-06T17:50:01;5.68;;;1.60;;
21731;SDS011;11028;51.156;17.130;2022-07-06T17:57:19;6.53;;;1.70;;
21731;SDS011;11028;51.156;17.130;2022-07-06T18:04:38;6.57;;;1.80;;
21731;SDS011;11028;51.156;17.130;2022-07-06T18:11:55;6.35;;;1.58;;
21731;SDS011;11028;51.156;17.130;2022-07-06T18:19:11;2.53;;;1.80;;
21731;SDS011;11028;51.156;17.130;2022-07-06T18:26:30;5.47;;;1.88;;
21731;SDS011;11028;51.156;17.130;2022-07-06T18:33:47;2.13;;;1.40;;
21731;SDS011;11028;51.156;17.130;2022-07-06T18:41:03;3.97;;;2.20;;
21731;SDS011;11028;51.156;17.130;2022-07-06T18:48:22;3.00;;;1.70;;
21731;SDS011;11028;51.156;17.130;2022-07-06T18:55:39;7.32;;;2.78;;
21731;SDS011;11028;51.156;17.130;2022-07-06T19:02:55;4.00;;;1.83;;
21731;SDS011;11028;51.156;17.130;2022-07-06T19:10:13;8.75;;;2.30;;
21731;SDS011;11028;51.156;17.130;2022-07-06T19:17:30;5.40;;;1.95;;
21731;SDS011;11028;51.156;17.130;2022-07-06T19:24:47;3.10;;;1.50;;
21731;SDS011;11028;51.156;17.130;2022-07-06T19:32:06;3.13;;;1.50;;
21731;SDS011;11028;51.156;17.130;2022-07-06T19:39:23;3.53;;;1.55;;
21731;SDS011;11028;51.156;17.130;2022-07-06T19:46:40;3.53;;;2.00;;
21731;SDS011;11028;51.156;17.130;2022-07-06T19:53:59;6.20;;;1.88;;
21731;SDS011;11028;51.156;17.130;2022-07-06T20:01:16;3.00;;;1.65;;
21731;SDS011;11028;51.156;17.130;2022-07-06T20:08:33;4.78;;;2.00;;
21731;SDS011;11028;51.156;17.130;2022-07-06T20:15:52;5.93;;;2.20;;
21731;SDS011;11028;51.156;17.130;2022-07-06T20:23:08;17.52;;;6.88;;
21731;SDS011;11028;51.156;17.130;2022-07-06T20:30:25;5.80;;;2.80;;
21731;SDS011;11028;51.156;17.130;2022-07-06T20:37:43;3.75;;;2.25;;
21731;SDS011;11028;51.156;17.130;2022-07-06T20:45:00;7.35;;;2.25;;
21731;SDS011;11028;51.156;17.130;2022-07-06T20:52:17;5.90;;;2.83;;
21731;SDS011;11028;51.156;17.130;2022-07-06T20:59:35;4.55;;;2.15;;
21731;SDS011;11028;51.156;17.130;2022-07-06T21:06:54;3.85;;;2.53;;
21731;SDS011;11028;51.156;17.130;2022-07-06T21:14:11;6.18;;;2.50;;
21731;SDS011;11028;51.156;17.130;2022-07-06T21:21:29;6.18;;;2.33;;
21731;SDS011;11028;51.156;17.130;2022-07-06T21:28:46;4.65;;;2.80;;
21731;SDS011;11028;51.156;17.130;2022-07-06T21:36:03;10.40;;;3.05;;
21731;SDS011;11028;51.156;17.130;2022-07-06T21:43:22;3.80;;;2.53;;
21731;SDS011;11028;51.156;17.130;2022-07-06T21:50:38;4.72;;;2.33;;
21731;SDS011;11028;51.156;17.130;2022-07-06T21:57:55;7.57;;;2.20;;
21731;SDS011;11028;51.156;17.130;2022-07-06T22:05:13;5.47;;;2.65;;
21731;SDS011;11028;51.156;17.130;2022-07-06T22:12:30;3.70;;;2.65;;
21731;SDS011;11028;51.156;17.130;2022-07-06T22:19:47;3.13;;;2.08;;
21731;SDS011;11028;51.156;17.130;2022-07-06T22:27:05;5.85;;;2.38;;
21731;SDS011;11028;51.156;17.130;2022-07-06T22:34:22;3.88;;;2.75;;
21731;SDS011;11028;51.156;17.130;2022-07-06T22:41:42;9.15;;;4.25;;
21731;SDS011;11028;51.156;17.130;2022-07-06T22:49:00;10.27;;;2.50;;
21731;SDS011;11028;51.156;17.130;2022-07-06T22:56:16;5.90;;;2.88;;
21731;SDS011;11028;51.156;17.130;2022-07-06T23:03:35;5.85;;;2.33;;
21731;SDS011;11028;51.156;17.130;2022-07-06T23:10:53;5.18;;;2.50;;
21731;SDS011;11028;51.156;17.130;2022-07-06T23:18:09;4.40;;;2.50;;
21731;SDS011;11028;51.156;17.130;2022-07-06T23:25:26;8.50;;;2.97;;
21731;SDS011;11028;51.156;17.130;2022-07-06T23:32:44;4.70;;;2.72;;
21731;SDS011;11028;51.156;17.130;2022-07-06T23:40:01;5.15;;;3.00;;
21731;SDS011;11028;51.156;17.130;2022-07-06T23:47:19;5.53;;;3.08;;
21731;SDS011;11028;51.156;17.130;2022-07-06T23:54:37;7.47;;;2.97;;
